sensor_id;sensor_type;location;lat;lon;timestamp;pressure;altitude;pressure_sealevel;temperature
80537;BMP280;69867;47.074;15.404;2023-06-14T00:01:56;97093.81;;;14.65
80537;BMP280;69867;47.074;15.404;2023-06-14T00:04:21;97086.75;;;14.67
80537;BMP280;69867;47.074;15.404;2023-06-14T00:06:46;97095.44;;;14.67
80537;BMP280;69867;47.074;15.404;2023-06-14T00:09:12;97084.28;;;14.64
80537;BMP280;69867;47.074;15.404;2023-06-14T00:11:39;97090.72;;;14.57
80537;BMP280;69867;47.074;15.404;2023-06-14T00:14:04;97081.03;;;14.59
80537;BMP280;69867;47.074;15.404;2023-06-14T00:16:30;97084.41;;;14.61
80537;BMP280;69867;47.074;15.404;2023-06-14T00:18:55;97083.78;;;14.56
80537;BMP280;69867;47.074;15.404;2023-06-14T00:21:20;97074.41;;;14.52
80537;BMP280;69867;47.074;15.404;2023-06-14T00:23:46;97070.22;;;14.48
80537;BMP280;69867;47.074;15.404;2023-06-14T00:26:11;97074.41;;;14.52
80537;BMP280;69867;47.074;15.404;2023-06-14T00:28:36;97074.31;;;14.53
80537;BMP280;69867;47.074;15.404;2023-06-14T00:31:02;97070.63;;;14.57
80537;BMP280;69867;47.074;15.404;2023-06-14T00:33:27;97068.81;;;14.59
80537;BMP280;69867;47.074;15.404;2023-06-14T00:35:52;97065.97;;;14.64
80537;BMP280;69867;47.074;15.404;2023-06-14T00:38:18;97070.97;;;14.68
80537;BMP280;69867;47.074;15.404;2023-06-14T00:40:43;97066.59;;;14.69
80537;BMP280;69867;47.074;15.404;2023-06-14T00:43:08;97074.22;;;14.73
80537;BMP280;69867;47.074;15.404;2023-06-14T00:45:34;97070.75;;;14.73
80537;BMP280;69867;47.074;15.404;2023-06-14T00:48:00;97081.16;;;14.75
80537;BMP280;69867;47.074;15.404;2023-06-14T00:50:26;97073.66;;;14.67
80537;BMP280;69867;47.074;15.404;2023-06-14T00:52:52;97077.19;;;14.66
80537;BMP280;69867;47.074;15.404;2023-06-14T00:55:17;97077.19;;;14.66
80537;BMP280;69867;47.074;15.404;2023-06-14T00:57:43;97082.44;;;14.66
80537;BMP280;69867;47.074;15.404;2023-06-14T01:00:08;97078.06;;;14.66
80537;BMP280;69867;47.074;15.404;2023-06-14T01:02:36;97082.44;;;14.66
80537;BMP280;69867;47.074;15.404;2023-06-14T01:05:02;97082.44;;;14.66
80537;BMP280;69867;47.074;15.404;2023-06-14T01:15:45;97073.25;;;14.57
80537;BMP280;69867;47.074;15.404;2023-06-14T01:18:10;97069.88;;;14.55
80537;BMP280;69867;47.074;15.404;2023-06-14T01:20:36;97069.25;;;14.50
80537;BMP280;69867;47.074;15.404;2023-06-14T01:23:01;97060.53;;;14.50
80537;BMP280;69867;47.074;15.404;2023-06-14T01:25:27;97058.50;;;14.56
80537;BMP280;69867;47.074;15.404;2023-06-14T01:27:56;97052.19;;;14.60
80537;BMP280;69867;47.074;15.404;2023-06-14T01:30:23;97056.72;;;14.57
80537;BMP280;69867;47.074;15.404;2023-06-14T01:32:49;97053.47;;;14.52
80537;BMP280;69867;47.074;15.404;2023-06-14T01:35:15;97048.41;;;14.49
80537;BMP280;69867;47.074;15.404;2023-06-14T01:37:41;97048.41;;;14.49
80537;BMP280;69867;47.074;15.404;2023-06-14T01:40:09;97045.00;;;14.47
80537;BMP280;69867;47.074;15.404;2023-06-14T01:42:36;97053.78;;;14.46
80537;BMP280;69867;47.074;15.404;2023-06-14T01:45:04;97044.16;;;14.46
80537;BMP280;69867;47.074;15.404;2023-06-14T01:47:31;97044.88;;;14.50
80537;BMP280;69867;47.074;15.404;2023-06-14T01:49:57;97039.00;;;14.45
80537;BMP280;69867;47.074;15.404;2023-06-14T01:52:22;97040.19;;;14.37
80537;BMP280;69867;47.074;15.404;2023-06-14T01:54:47;97041.31;;;14.32
80537;BMP280;69867;47.074;15.404;2023-06-14T01:57:13;97046.53;;;14.32
80537;BMP280;69867;47.074;15.404;2023-06-14T01:59:38;97044.00;;;14.30
80537;BMP280;69867;47.074;15.404;2023-06-14T02:02:04;97043.84;;;14.33
80537;BMP280;69867;47.074;15.404;2023-06-14T02:04:29;97045.41;;;14.37
80537;BMP280;69867;47.074;15.404;2023-06-14T02:06:55;97041.72;;;14.41
80537;BMP280;69867;47.074;15.404;2023-06-14T02:09:20;97037.25;;;14.45
80537;BMP280;69867;47.074;15.404;2023-06-14T02:11:45;97039.00;;;14.45
80537;BMP280;69867;47.074;15.404;2023-06-14T02:14:11;97044.41;;;14.40
80537;BMP280;69867;47.074;15.404;2023-06-14T02:16:36;97046.00;;;14.44
80537;BMP280;69867;47.074;15.404;2023-06-14T02:19:01;97037.63;;;14.36
80537;BMP280;69867;47.074;15.404;2023-06-14T02:21:27;97040.19;;;14.37
80537;BMP280;69867;47.074;15.404;2023-06-14T02:23:52;97043.09;;;14.31
80537;BMP280;69867;47.074;15.404;2023-06-14T02:26:17;97043.09;;;14.31
80537;BMP280;69867;47.074;15.404;2023-06-14T02:28:43;97038.63;;;14.33
80537;BMP280;69867;47.074;15.404;2023-06-14T02:31:08;97032.66;;;14.30
80537;BMP280;69867;47.074;15.404;2023-06-14T02:33:33;97033.81;;;14.24
80537;BMP280;69867;47.074;15.404;2023-06-14T02:35:59;97033.03;;;14.22
80537;BMP280;69867;47.074;15.404;2023-06-14T02:38:24;97034.78;;;14.22
80537;BMP280;69867;47.074;15.404;2023-06-14T02:40:50;97046.94;;;14.23
80537;BMP280;69867;47.074;15.404;2023-06-14T02:43:15;97041.84;;;14.20
80537;BMP280;69867;47.074;15.404;2023-06-14T02:45:40;97039.31;;;14.18
80537;BMP280;69867;47.074;15.404;2023-06-14T02:51:09;97033.25;;;14.18
80537;BMP280;69867;47.074;15.404;2023-06-14T02:53:35;97041.00;;;14.19
80537;BMP280;69867;47.074;15.404;2023-06-14T02:56:01;97041.78;;;14.21
80537;BMP280;69867;47.074;15.404;2023-06-14T02:58:26;97042.56;;;14.23
80537;BMP280;69867;47.074;15.404;2023-06-14T03:07:02;97045.19;;;14.23
80537;BMP280;69867;47.074;15.404;2023-06-14T03:09:28;97038.78;;;14.30
80537;BMP280;69867;47.074;15.404;2023-06-14T03:11:53;97036.94;;;14.32
80537;BMP280;69867;47.074;15.404;2023-06-14T03:14:19;97021.09;;;14.35
80537;BMP280;69867;47.074;15.404;2023-06-14T03:16:44;97033.25;;;14.36
80537;BMP280;69867;47.074;15.404;2023-06-14T03:19:09;97024.44;;;14.39
80537;BMP280;69867;47.074;15.404;2023-06-14T03:21:35;97027.69;;;14.44
80537;BMP280;69867;47.074;15.404;2023-06-14T03:24:00;97029.72;;;14.37
80537;BMP280;69867;47.074;15.404;2023-06-14T03:26:25;97030.66;;;14.36
80537;BMP280;69867;47.074;15.404;2023-06-14T03:28:51;97031.72;;;14.32
80537;BMP280;69867;47.074;15.404;2023-06-14T03:31:16;97044.50;;;14.38
80537;BMP280;69867;47.074;15.404;2023-06-14T03:33:41;97043.72;;;14.36
80537;BMP280;69867;47.074;15.404;2023-06-14T03:36:07;97047.75;;;14.44
80537;BMP280;69867;47.074;15.404;2023-06-14T03:38:33;97043.38;;;14.44
80537;BMP280;69867;47.074;15.404;2023-06-14T03:40:58;97044.72;;;14.53
80537;BMP280;69867;47.074;15.404;2023-06-14T03:43:24;97044.50;;;14.57
80537;BMP280;69867;47.074;15.404;2023-06-14T03:45:49;97046.41;;;14.54
80537;BMP280;69867;47.074;15.404;2023-06-14T03:48:14;97054.31;;;14.52
80537;BMP280;69867;47.074;15.404;2023-06-14T03:50:40;97045.63;;;14.52
80537;BMP280;69867;47.074;15.404;2023-06-14T03:53:06;97046.25;;;14.57
80537;BMP280;69867;47.074;15.404;2023-06-14T03:55:31;97046.97;;;14.60
80537;BMP280;69867;47.074;15.404;2023-06-14T03:57:57;97048.81;;;14.58
80537;BMP280;69867;47.074;15.404;2023-06-14T04:00:23;97054.19;;;14.55
80537;BMP280;69867;47.074;15.404;2023-06-14T04:02:48;97047.34;;;14.53
80537;BMP280;69867;47.074;15.404;2023-06-14T04:05:13;97051.53;;;14.74
80537;BMP280;69867;47.074;15.404;2023-06-14T04:07:39;97050.16;;;14.84
80537;BMP280;69867;47.074;15.404;2023-06-14T04:10:05;97055.72;;;14.95
80537;BMP280;69867;47.074;15.404;2023-06-14T04:12:30;97049.88;;;15.08
80537;BMP280;69867;47.074;15.404;2023-06-14T04:14:56;97058.31;;;14.95
80537;BMP280;69867;47.074;15.404;2023-06-14T04:17:21;97062.19;;;15.05
80537;BMP280;69867;47.074;15.404;2023-06-14T04:19:46;97064.66;;;15.09
80537;BMP280;69867;47.074;15.404;2023-06-14T04:22:11;97056.66;;;15.12
80537;BMP280;69867;47.074;15.404;2023-06-14T04:24:37;97065.81;;;15.20
80537;BMP280;69867;47.074;15.404;2023-06-14T04:27:02;97068.66;;;15.16
80537;BMP280;69867;47.074;15.404;2023-06-14T04:29:28;97070.19;;;15.20
80537;BMP280;69867;47.074;15.404;2023-06-14T04:31:54;97066.66;;;15.21
80537;BMP280;69867;47.074;15.404;2023-06-14T04:34:19;97077.06;;;15.22
80537;BMP280;69867;47.074;15.404;2023-06-14T04:36:45;97076.22;;;15.22
80537;BMP280;69867;47.074;15.404;2023-06-14T04:39:10;97076.34;;;15.19
80537;BMP280;69867;47.074;15.404;2023-06-14T04:41:36;97068.34;;;15.22
80537;BMP280;69867;47.074;15.404;2023-06-14T04:44:01;97073.81;;;15.17
80537;BMP280;69867;47.074;15.404;2023-06-14T04:46:29;97075.13;;;15.09
80537;BMP280;69867;47.074;15.404;2023-06-14T04:48:55;97075.16;;;14.90
80537;BMP280;69867;47.074;15.404;2023-06-14T04:51:20;97088.19;;;14.91
80537;BMP280;69867;47.074;15.404;2023-06-14T04:53:46;97082.50;;;15.00
80537;BMP280;69867;47.074;15.404;2023-06-14T04:56:11;97087.59;;;15.03
80537;BMP280;69867;47.074;15.404;2023-06-14T04:58:36;97088.91;;;15.12
80537;BMP280;69867;47.074;15.404;2023-06-14T05:01:02;97087.91;;;15.15
80537;BMP280;69867;47.074;15.404;2023-06-14T05:03:27;97087.13;;;15.13
80537;BMP280;69867;47.074;15.404;2023-06-14T05:05:52;97090.66;;;15.12
80537;BMP280;69867;47.074;15.404;2023-06-14T05:08:18;97092.22;;;15.16
80537;BMP280;69867;47.074;15.404;2023-06-14T05:10:43;97099.75;;;15.22
80537;BMP280;69867;47.074;15.404;2023-06-14T05:13:08;97090.69;;;15.29
80537;BMP280;69867;47.074;15.404;2023-06-14T05:15:34;97090.44;;;15.33
80537;BMP280;69867;47.074;15.404;2023-06-14T05:17:59;97093.84;;;15.35
80537;BMP280;69867;47.074;15.404;2023-06-14T05:20:25;97096.22;;;15.40
80537;BMP280;69867;47.074;15.404;2023-06-14T05:22:52;97096.69;;;15.48
80537;BMP280;69867;47.074;15.404;2023-06-14T05:25:17;97097.53;;;15.49
80537;BMP280;69867;47.074;15.404;2023-06-14T05:27:43;97099.63;;;15.42
80537;BMP280;69867;47.074;15.404;2023-06-14T05:30:09;97108.53;;;15.38
80537;BMP280;69867;47.074;15.404;2023-06-14T05:32:34;97104.78;;;15.44
80537;BMP280;69867;47.074;15.404;2023-06-14T05:34:59;97109.94;;;15.45
80537;BMP280;69867;47.074;15.404;2023-06-14T05:37:25;97113.31;;;15.47
80537;BMP280;69867;47.074;15.404;2023-06-14T05:39:50;97107.38;;;15.44
80537;BMP280;69867;47.074;15.404;2023-06-14T05:42:15;97109.09;;;15.45
80537;BMP280;69867;47.074;15.404;2023-06-14T05:44:41;97109.78;;;15.48
80537;BMP280;69867;47.074;15.404;2023-06-14T05:47:06;97106.16;;;15.51
80537;BMP280;69867;47.074;15.404;2023-06-14T05:49:31;97115.63;;;15.53
80537;BMP280;69867;47.074;15.404;2023-06-14T05:51:57;97115.00;;;15.48
80537;BMP280;69867;47.074;15.404;2023-06-14T05:54:22;97118.09;;;15.39
80537;BMP280;69867;47.074;15.404;2023-06-14T05:56:48;97111.25;;;15.36
80537;BMP280;69867;47.074;15.404;2023-06-14T05:59:13;97118.63;;;15.28
80537;BMP280;69867;47.074;15.404;2023-06-14T06:01:38;97123.25;;;15.23
80537;BMP280;69867;47.074;15.404;2023-06-14T06:04:04;97132.53;;;15.12
80537;BMP280;69867;47.074;15.404;2023-06-14T06:06:29;97138.09;;;15.23
80537;BMP280;69867;47.074;15.404;2023-06-14T06:08:55;97140.72;;;15.23
80537;BMP280;69867;47.074;15.404;2023-06-14T06:11:20;97141.72;;;15.20
80537;BMP280;69867;47.074;15.404;2023-06-14T06:13:45;97148.72;;;15.20
80537;BMP280;69867;47.074;15.404;2023-06-14T06:16:10;97134.41;;;15.27
80537;BMP280;69867;47.074;15.404;2023-06-14T06:18:36;97135.66;;;15.37
80537;BMP280;69867;47.074;15.404;2023-06-14T06:21:02;97124.63;;;15.48
80537;BMP280;69867;47.074;15.404;2023-06-14T06:23:28;97139.03;;;15.56
80537;BMP280;69867;47.074;15.404;2023-06-14T06:25:53;97150.66;;;15.70
80537;BMP280;69867;47.074;15.404;2023-06-14T06:28:19;97153.34;;;15.68
80537;BMP280;69867;47.074;15.404;2023-06-14T06:30:44;97155.91;;;15.70
80537;BMP280;69867;47.074;15.404;2023-06-14T06:33:09;97155.75;;;15.54
80537;BMP280;69867;47.074;15.404;2023-06-14T06:35:35;97166.53;;;15.48
80537;BMP280;69867;47.074;15.404;2023-06-14T06:38:00;97157.91;;;15.46
80537;BMP280;69867;47.074;15.404;2023-06-14T06:40:25;97164.69;;;15.50
80537;BMP280;69867;47.074;15.404;2023-06-14T06:42:50;97164.47;;;15.54
80537;BMP280;69867;47.074;15.404;2023-06-14T06:45:16;97165.00;;;15.62
80537;BMP280;69867;47.074;15.404;2023-06-14T06:47:41;97170.22;;;15.62
80537;BMP280;69867;47.074;15.404;2023-06-14T06:50:07;97175.63;;;15.77
80537;BMP280;69867;47.074;15.404;2023-06-14T06:52:33;97176.69;;;15.90
80537;BMP280;69867;47.074;15.404;2023-06-14T06:54:58;97179.63;;;15.84
80537;BMP280;69867;47.074;15.404;2023-06-14T06:57:23;97177.31;;;15.95
80537;BMP280;69867;47.074;15.404;2023-06-14T06:59:49;97183.47;;;15.94
80537;BMP280;69867;47.074;15.404;2023-06-14T07:02:15;97190.88;;;15.86
80537;BMP280;69867;47.074;15.404;2023-06-14T07:04:40;97190.78;;;15.70
80537;BMP280;69867;47.074;15.404;2023-06-14T07:07:05;97194.00;;;15.58
80537;BMP280;69867;47.074;15.404;2023-06-14T07:09:31;97192.63;;;15.68
80537;BMP280;69867;47.074;15.404;2023-06-14T07:11:56;97207.34;;;15.71
80537;BMP280;69867;47.074;15.404;2023-06-14T07:14:21;97199.50;;;15.71
80537;BMP280;69867;47.074;15.404;2023-06-14T07:16:47;97206.44;;;15.72
80537;BMP280;69867;47.074;15.404;2023-06-14T07:19:12;97209.22;;;15.68
80537;BMP280;69867;47.074;15.404;2023-06-14T07:21:37;97213.69;;;15.66
80537;BMP280;69867;47.074;15.404;2023-06-14T07:24:04;97221.53;;;15.66
80537;BMP280;69867;47.074;15.404;2023-06-14T07:26:29;97225.31;;;15.61
80537;BMP280;69867;47.074;15.404;2023-06-14T07:28:55;97233.91;;;15.44
80537;BMP280;69867;47.074;15.404;2023-06-14T07:31:20;97236.19;;;15.33
80537;BMP280;69867;47.074;15.404;2023-06-14T07:33:45;97249.22;;;15.34
80537;BMP280;69867;47.074;15.404;2023-06-14T07:36:11;97237.75;;;15.37
80537;BMP280;69867;47.074;15.404;2023-06-14T07:38:36;97237.19;;;15.30
80537;BMP280;69867;47.074;15.404;2023-06-14T07:41:02;97239.59;;;15.35
80537;BMP280;69867;47.074;15.404;2023-06-14T07:43:27;97230.59;;;15.41
80537;BMP280;69867;47.074;15.404;2023-06-14T07:45:53;97242.53;;;15.46
80537;BMP280;69867;47.074;15.404;2023-06-14T07:48:18;97251.41;;;15.44
80537;BMP280;69867;47.074;15.404;2023-06-14T07:50:44;97237.94;;;15.51
80537;BMP280;69867;47.074;15.404;2023-06-14T07:53:09;97241.97;;;15.58
80537;BMP280;69867;47.074;15.404;2023-06-14T07:55:35;97247.41;;;15.54
80537;BMP280;69867;47.074;15.404;2023-06-14T07:58:00;97262.38;;;15.33
80537;BMP280;69867;47.074;15.404;2023-06-14T08:00:25;97267.63;;;15.33
80537;BMP280;69867;47.074;15.404;2023-06-14T08:02:51;97275.41;;;15.16
80537;BMP280;69867;47.074;15.404;2023-06-14T08:05:16;97281.28;;;15.21
80537;BMP280;69867;47.074;15.404;2023-06-14T08:07:41;97294.00;;;15.10
80537;BMP280;69867;47.074;15.404;2023-06-14T08:10:07;97294.00;;;15.10
80537;BMP280;69867;47.074;15.404;2023-06-14T08:12:33;97299.09;;;14.94
80537;BMP280;69867;47.074;15.404;2023-06-14T08:14:58;97295.84;;;15.08
80537;BMP280;69867;47.074;15.404;2023-06-14T08:17:24;97300.38;;;15.04
80537;BMP280;69867;47.074;15.404;2023-06-14T08:19:49;97303.91;;;15.03
80537;BMP280;69867;47.074;15.404;2023-06-14T08:22:15;97301.56;;;14.97
80537;BMP280;69867;47.074;15.404;2023-06-14T08:24:40;97308.44;;;14.99
80537;BMP280;69867;47.074;15.404;2023-06-14T08:27:06;97310.81;;;14.85
80537;BMP280;69867;47.074;15.404;2023-06-14T08:29:31;97313.69;;;14.60
80537;BMP280;69867;47.074;15.404;2023-06-14T08:31:57;97325.66;;;14.46
80537;BMP280;69867;47.074;15.404;2023-06-14T08:34:22;97323.16;;;14.43
80537;BMP280;69867;47.074;15.404;2023-06-14T08:36:48;97322.34;;;14.40
80537;BMP280;69867;47.074;15.404;2023-06-14T08:39:13;97327.22;;;14.50
80537;BMP280;69867;47.074;15.404;2023-06-14T08:41:38;97323.56;;;14.54
80537;BMP280;69867;47.074;15.404;2023-06-14T08:44:04;97328.13;;;14.69
80537;BMP280;69867;47.074;15.404;2023-06-14T08:46:32;97324.59;;;14.70
80537;BMP280;69867;47.074;15.404;2023-06-14T08:48:58;97325.88;;;14.80
80537;BMP280;69867;47.074;15.404;2023-06-14T08:51:25;97333.13;;;15.13
80537;BMP280;69867;47.074;15.404;2023-06-14T08:53:55;97331.50;;;15.29
80537;BMP280;69867;47.074;15.404;2023-06-14T08:56:20;97340.00;;;15.15
80537;BMP280;69867;47.074;15.404;2023-06-14T08:58:47;97338.63;;;15.07
80537;BMP280;69867;47.074;15.404;2023-06-14T09:01:14;97339.06;;;15.16
80537;BMP280;69867;47.074;15.404;2023-06-14T09:03:40;97347.53;;;15.02
80537;BMP280;69867;47.074;15.404;2023-06-14T09:06:05;97345.41;;;14.92
80537;BMP280;69867;47.074;15.404;2023-06-14T09:08:30;97349.78;;;14.91
80537;BMP280;69867;47.074;15.404;2023-06-14T09:10:56;97350.78;;;14.89
80537;BMP280;69867;47.074;15.404;2023-06-14T09:13:22;97344.56;;;14.91
80537;BMP280;69867;47.074;15.404;2023-06-14T09:15:47;97341.63;;;15.18
80537;BMP280;69867;47.074;15.404;2023-06-14T09:18:12;97343.47;;;15.34
80537;BMP280;69867;47.074;15.404;2023-06-14T09:20:38;97341.63;;;15.18
80537;BMP280;69867;47.074;15.404;2023-06-14T09:23:04;97344.50;;;14.93
80537;BMP280;69867;47.074;15.404;2023-06-14T09:25:29;97335.09;;;15.08
80537;BMP280;69867;47.074;15.404;2023-06-14T09:27:54;97341.66;;;14.97
80537;BMP280;69867;47.074;15.404;2023-06-14T09:30:20;97339.88;;;14.79
80537;BMP280;69867;47.074;15.404;2023-06-14T09:32:46;97348.88;;;14.92
80537;BMP280;69867;47.074;15.404;2023-06-14T09:35:12;97346.25;;;14.92
80537;BMP280;69867;47.074;15.404;2023-06-14T09:37:37;97353.06;;;14.96
80537;BMP280;69867;47.074;15.404;2023-06-14T09:40:03;97342.59;;;15.15
80537;BMP280;69867;47.074;15.404;2023-06-14T09:42:28;97341.97;;;15.29
80537;BMP280;69867;47.074;15.404;2023-06-14T09:44:55;97339.91;;;15.54
80537;BMP280;69867;47.074;15.404;2023-06-14T09:47:22;97347.44;;;15.81
80537;BMP280;69867;47.074;15.404;2023-06-14T09:49:48;97339.72;;;16.14
80537;BMP280;69867;47.074;15.404;2023-06-14T09:52:18;97351.50;;;16.05
80537;BMP280;69867;47.074;15.404;2023-06-14T09:54:45;97336.78;;;16.54
80537;BMP280;69867;47.074;15.404;2023-06-14T09:57:12;97339.47;;;16.87
80537;BMP280;69867;47.074;15.404;2023-06-14T09:59:45;97336.28;;;17.31
80537;BMP280;69867;47.074;15.404;2023-06-14T10:02:18;97328.78;;;17.88
80537;BMP280;69867;47.074;15.404;2023-06-14T10:04:52;97331.81;;;18.42
80537;BMP280;69867;47.074;15.404;2023-06-14T10:07:19;97327.03;;;18.78
80537;BMP280;69867;47.074;15.404;2023-06-14T10:09:47;97321.75;;;18.93
80537;BMP280;69867;47.074;15.404;2023-06-14T10:12:12;97322.50;;;19.23
80537;BMP280;69867;47.074;15.404;2023-06-14T10:14:37;97326.94;;;19.23
80537;BMP280;69867;47.074;15.404;2023-06-14T10:17:08;97328.16;;;19.03
80537;BMP280;69867;47.074;15.404;2023-06-14T10:19:44;97321.09;;;18.89
80537;BMP280;69867;47.074;15.404;2023-06-14T10:22:30;97320.16;;;19.04
80537;BMP280;69867;47.074;15.404;2023-06-14T10:24:57;97325.66;;;18.11
80537;BMP280;69867;47.074;15.404;2023-06-14T10:27:22;97329.22;;;18.26
80537;BMP280;69867;47.074;15.404;2023-06-14T10:32:20;97314.97;;;18.74
80537;BMP280;69867;47.074;15.404;2023-06-14T10:34:53;97324.38;;;18.78
80537;BMP280;69867;47.074;15.404;2023-06-14T10:37:19;97325.75;;;18.26
80537;BMP280;69867;47.074;15.404;2023-06-14T10:39:45;97316.50;;;18.48
80537;BMP280;69867;47.074;15.404;2023-06-14T10:42:10;97318.19;;;19.08
80537;BMP280;69867;47.074;15.404;2023-06-14T10:44:49;97317.34;;;18.93
80537;BMP280;69867;47.074;15.404;2023-06-14T10:50:02;97317.97;;;18.68
80537;BMP280;69867;47.074;15.404;2023-06-14T10:52:28;97306.34;;;19.01
80537;BMP280;69867;47.074;15.404;2023-06-14T10:55:10;97304.72;;;19.55
80537;BMP280;69867;47.074;15.404;2023-06-14T10:57:40;97300.31;;;19.83
80537;BMP280;69867;47.074;15.404;2023-06-14T11:00:07;97291.69;;;20.33
80537;BMP280;69867;47.074;15.404;2023-06-14T11:05:27;97277.75;;;20.96
80537;BMP280;69867;47.074;15.404;2023-06-14T11:10:40;97272.00;;;20.76
80537;BMP280;69867;47.074;15.404;2023-06-14T11:13:07;97277.94;;;20.67
80537;BMP280;69867;47.074;15.404;2023-06-14T11:15:34;97273.31;;;20.84
80537;BMP280;69867;47.074;15.404;2023-06-14T11:18:01;97276.56;;;20.74
80537;BMP280;69867;47.074;15.404;2023-06-14T11:20:29;97269.72;;;20.85
80537;BMP280;69867;47.074;15.404;2023-06-14T11:22:55;97284.38;;;20.51
80537;BMP280;69867;47.074;15.404;2023-06-14T11:25:20;97277.63;;;19.80
80537;BMP280;69867;47.074;15.404;2023-06-14T11:27:46;97280.47;;;19.77
80537;BMP280;69867;47.074;15.404;2023-06-14T11:30:13;97280.00;;;19.97
80537;BMP280;69867;47.074;15.404;2023-06-14T11:32:38;97277.28;;;19.99
80537;BMP280;69867;47.074;15.404;2023-06-14T11:35:05;97271.38;;;20.48
80537;BMP280;69867;47.074;15.404;2023-06-14T11:37:31;97268.31;;;20.66
80537;BMP280;69867;47.074;15.404;2023-06-14T11:39:57;97271.06;;;20.39
80537;BMP280;69867;47.074;15.404;2023-06-14T11:42:24;97267.38;;;20.55
80537;BMP280;69867;47.074;15.404;2023-06-14T11:44:49;97255.22;;;20.65
80537;BMP280;69867;47.074;15.404;2023-06-14T11:47:15;97249.31;;;20.74
80537;BMP280;69867;47.074;15.404;2023-06-14T11:49:40;97256.50;;;20.85
80537;BMP280;69867;47.074;15.404;2023-06-14T11:52:06;97264.09;;;20.76
80537;BMP280;69867;47.074;15.404;2023-06-14T11:54:32;97257.34;;;20.72
80537;BMP280;69867;47.074;15.404;2023-06-14T11:56:58;97256.78;;;21.18
80537;BMP280;69867;47.074;15.404;2023-06-14T11:59:24;97254.81;;;20.84
80537;BMP280;69867;47.074;15.404;2023-06-14T12:01:49;97251.97;;;20.87
80537;BMP280;69867;47.074;15.404;2023-06-14T12:04:23;97251.97;;;20.87
80537;BMP280;69867;47.074;15.404;2023-06-14T12:06:49;97250.16;;;20.74
80537;BMP280;69867;47.074;15.404;2023-06-14T12:09:14;97244.78;;;20.89
80537;BMP280;69867;47.074;15.404;2023-06-14T12:11:39;97244.97;;;20.98
80537;BMP280;69867;47.074;15.404;2023-06-14T12:14:05;97243.47;;;21.07
80537;BMP280;69867;47.074;15.404;2023-06-14T12:16:34;97240.75;;;20.96
80537;BMP280;69867;47.074;15.404;2023-06-14T12:19:01;97243.03;;;21.13
80537;BMP280;69867;47.074;15.404;2023-06-14T12:21:32;97243.72;;;20.91
80537;BMP280;69867;47.074;15.404;2023-06-14T12:23:58;97246.97;;;20.44
80537;BMP280;69867;47.074;15.404;2023-06-14T12:26:24;97240.66;;;20.72
80537;BMP280;69867;47.074;15.404;2023-06-14T12:28:51;97248.03;;;20.80
80537;BMP280;69867;47.074;15.404;2023-06-14T12:31:17;97240.88;;;20.82
80537;BMP280;69867;47.074;15.404;2023-06-14T12:33:42;97239.06;;;20.95
80537;BMP280;69867;47.074;15.404;2023-06-14T12:36:09;97244.84;;;21.13
80537;BMP280;69867;47.074;15.404;2023-06-14T12:38:35;97241.28;;;20.50
80537;BMP280;69867;47.074;15.404;2023-06-14T12:41:01;97240.09;;;20.29
80537;BMP280;69867;47.074;15.404;2023-06-14T12:43:26;97240.91;;;20.17
80537;BMP280;69867;47.074;15.404;2023-06-14T12:45:52;97241.78;;;20.30
80537;BMP280;69867;47.074;15.404;2023-06-14T12:48:17;97230.09;;;20.59
80537;BMP280;69867;47.074;15.404;2023-06-14T12:50:43;97230.19;;;20.45
80537;BMP280;69867;47.074;15.404;2023-06-14T12:53:08;97233.78;;;20.44
80537;BMP280;69867;47.074;15.404;2023-06-14T12:55:33;97232.63;;;20.48
80537;BMP280;69867;47.074;15.404;2023-06-14T12:57:59;97232.16;;;20.16
80537;BMP280;69867;47.074;15.404;2023-06-14T13:00:24;97232.47;;;19.72
80537;BMP280;69867;47.074;15.404;2023-06-14T13:02:50;97226.53;;;20.08
80537;BMP280;69867;47.074;15.404;2023-06-14T13:05:15;97230.78;;;20.10
80537;BMP280;69867;47.074;15.404;2023-06-14T13:07:40;97226.78;;;20.30
80537;BMP280;69867;47.074;15.404;2023-06-14T13:10:06;97229.03;;;20.49
80537;BMP280;69867;47.074;15.404;2023-06-14T13:12:31;97222.50;;;20.55
80537;BMP280;69867;47.074;15.404;2023-06-14T13:14:57;97235.09;;;20.11
80537;BMP280;69867;47.074;15.404;2023-06-14T13:17:22;97224.56;;;20.24
80537;BMP280;69867;47.074;15.404;2023-06-14T13:19:47;97230.16;;;20.32
80537;BMP280;69867;47.074;15.404;2023-06-14T13:22:13;97232.03;;;20.18
80537;BMP280;69867;47.074;15.404;2023-06-14T13:24:38;97230.63;;;20.39
80537;BMP280;69867;47.074;15.404;2023-06-14T13:27:04;97226.81;;;20.43
80537;BMP280;69867;47.074;15.404;2023-06-14T13:29:29;97234.63;;;20.57
80537;BMP280;69867;47.074;15.404;2023-06-14T13:31:54;97232.53;;;20.50
80537;BMP280;69867;47.074;15.404;2023-06-14T13:34:19;97232.75;;;20.85
80537;BMP280;69867;47.074;15.404;2023-06-14T13:36:45;97229.66;;;20.65
80537;BMP280;69867;47.074;15.404;2023-06-14T13:39:10;97232.00;;;20.57
80537;BMP280;69867;47.074;15.404;2023-06-14T13:41:36;97228.63;;;20.55
80537;BMP280;69867;47.074;15.404;2023-06-14T13:44:02;97225.13;;;20.67
80537;BMP280;69867;47.074;15.404;2023-06-14T13:46:27;97217.00;;;20.70
80537;BMP280;69867;47.074;15.404;2023-06-14T13:48:52;97209.59;;;20.88
80537;BMP280;69867;47.074;15.404;2023-06-14T13:51:18;97211.03;;;21.05
80537;BMP280;69867;47.074;15.404;2023-06-14T13:53:46;97216.72;;;21.12
80537;BMP280;69867;47.074;15.404;2023-06-14T13:56:11;97213.97;;;21.13
80537;BMP280;69867;47.074;15.404;2023-06-14T13:58:37;97218.63;;;21.22
80537;BMP280;69867;47.074;15.404;2023-06-14T14:01:03;97210.28;;;21.52
80537;BMP280;69867;47.074;15.404;2023-06-14T14:03:28;97216.56;;;21.38
80537;BMP280;69867;47.074;15.404;2023-06-14T14:05:53;97203.88;;;21.67
80537;BMP280;69867;47.074;15.404;2023-06-14T14:08:19;97210.22;;;21.65
80537;BMP280;69867;47.074;15.404;2023-06-14T14:10:44;97212.19;;;21.74
80537;BMP280;69867;47.074;15.404;2023-06-14T14:13:10;97198.88;;;21.87
80537;BMP280;69867;47.074;15.404;2023-06-14T14:15:35;97203.91;;;21.79
80537;BMP280;69867;47.074;15.404;2023-06-14T14:18:00;97206.41;;;21.69